Time;durP1;ratioP1;P1;durP2;ratioP2;P2;SDS_P1;SDS_P2;PMS_P1;PMS_P2;Temp;Humidity;BMP_temperature;BMP_pressure;BME280_temperature;BME280_humidity;BME280_pressure;Samples;Min_cycle;Max_cycle;Signal;HPM_P1;HPM_P2
2024/01/10 00:01:58;;;;;;;23.42;16.98;;;;;;;-2.13;47.58;101326.38;10330302;28;20049;-62
2024/01/10 00:06:59;;;;;;;27.85;19.95;;;;;;;-1.94;48.67;101360.09;10327772;28;20624;-64
2024/01/10 00:12:01;;;;;;;30.13;17.73;;;;;;;-1.92;48.66;101355.75;10327759;28;20108;-63
2024/01/10 00:17:02;;;;;;;24.20;17.77;;;;;;;-1.92;48.46;101333.97;10329042;28;20053;-62
2024/01/10 00:22:04;;;;;;;26.35;18.23;;;;;;;-2.02;47.78;101300.16;10327592;28;20053;-63
2024/01/10 00:27:09;;;;;;;24.75;17.80;;;;;;;-1.91;48.28;101336.56;10327979;28;20107;-63
2024/01/10 00:32:11;;;;;;;;;;;;;;;-1.89;48.21;101337.44;10332839;28;20101;-62
2024/01/10 00:37:13;;;;;;;26.23;17.92;;;;;;;-1.88;48.23;101330.47;10330715;28;19929;-63
2024/01/10 00:42:16;;;;;;;28.08;18.65;;;;;;;-2.02;48.10;101322.78;10314470;28;20049;-62
2024/01/10 00:47:18;;;;;;;27.67;18.90;;;;;;;-1.98;48.70;101329.72;10319686;28;20108;-63
2024/01/10 00:52:19;;;;;;;26.88;18.45;;;;;;;-2.00;48.67;101334.06;10353576;28;20099;-63
2024/01/10 00:57:23;;;;;;;24.65;18.77;;;;;;;-2.05;48.87;101333.28;10325311;28;20687;-64
2024/01/10 01:02:24;;;;;;;27.50;19.55;;;;;;;-1.97;48.26;101321.00;10323165;28;20054;-63
2024/01/10 01:07:26;;;;;;;25.42;19.25;;;;;;;-2.01;49.35;101312.34;10346291;28;20057;-60
2024/01/10 01:12:28;;;;;;;23.77;18.58;;;;;;;-1.95;48.83;101329.69;10328884;28;20058;-62
2024/01/10 01:17:29;;;;;;;24.63;18.00;;;;;;;-1.96;47.87;101317.50;10325680;28;20050;-61
2024/01/10 01:22:31;;;;;;;28.77;19.02;;;;;;;-1.82;48.68;101326.06;10343656;28;20041;-61
2024/01/10 01:27:32;;;;;;;26.02;17.58;;;;;;;-1.98;49.28;101303.63;10349385;28;20053;-62
2024/01/10 01:32:34;;;;;;;28.70;19.35;;;;;;;-1.86;49.04;101328.69;10325784;28;20053;-62
2024/01/10 01:37:37;;;;;;;26.55;19.02;;;;;;;-1.88;49.02;101326.09;10328020;28;20048;-61
2024/01/10 01:42:38;;;;;;;28.92;19.73;;;;;;;-1.91;48.59;101318.31;10329234;28;20140;-62
2024/01/10 01:47:42;;;;;;;26.60;19.70;;;;;;;-1.86;49.00;101313.03;10322574;28;20099;-63
2024/01/10 01:52:44;;;;;;;29.63;21.30;;;;;;;-1.95;48.71;101319.25;10345436;28;20125;-63
2024/01/10 01:57:46;;;;;;;25.05;18.48;;;;;;;-2.23;48.96;101259.53;10319930;28;20054;-63
2024/01/10 02:02:48;;;;;;;27.45;19.67;;;;;;;-2.02;48.88;101302.78;10325611;28;20050;-65
2024/01/10 02:07:50;;;;;;;27.83;18.98;;;;;;;-1.91;49.82;101302.66;10327228;28;20185;-62
2024/01/10 02:12:53;;;;;;;25.77;18.67;;;;;;;-1.88;49.35;101300.00;10359869;28;20058;-61
2024/01/10 02:17:54;;;;;;;28.05;19.42;;;;;;;-2.01;49.27;101293.19;10351914;28;20626;-61
2024/01/10 02:22:56;;;;;;;28.23;19.52;;;;;;;-2.02;49.04;101296.72;10360877;28;20137;-61
2024/01/10 02:27:57;;;;;;;24.98;17.80;;;;;;;-2.06;49.09;101280.19;10330057;28;20061;-63
2024/01/10 02:32:59;;;;;;;30.02;19.20;;;;;;;-2.04;50.28;101278.47;10353432;28;20648;-62
2024/01/10 02:38:01;;;;;;;27.90;18.90;;;;;;;-1.93;49.33;101280.06;10329524;28;20057;-62
2024/01/10 02:43:03;;;;;;;26.10;19.05;;;;;;;-1.91;49.27;101286.13;10329473;28;20054;-64
2024/01/10 02:48:05;;;;;;;28.58;19.67;;;;;;;-2.03;49.38;101274.09;10329096;28;20128;-63
2024/01/10 02:53:07;;;;;;;24.75;17.83;;;;;;;-1.92;49.46;101272.22;10349270;28;20100;-63
2024/01/10 02:58:08;;;;;;;28.73;20.55;;;;;;;-2.08;49.03;101258.50;10318470;28;20066;-64
2024/01/10 03:03:11;;;;;;;25.08;18.95;;;;;;;-2.11;49.41;101249.84;10347775;28;20050;-63
2024/01/10 03:08:13;;;;;;;26.35;18.73;;;;;;;-2.01;49.87;101254.94;10326061;28;20050;-68
2024/01/10 03:13:14;;;;;;;28.95;18.60;;;;;;;-1.96;49.87;101260.09;10332298;28;20106;-63
2024/01/10 03:18:18;;;;;;;28.75;18.80;;;;;;;-1.97;49.59;101268.78;10331141;28;20177;-64
2024/01/10 03:23:21;;;;;;;27.27;18.73;;;;;;;-1.97;49.68;101264.47;10323393;28;20523;-62
2024/01/10 03:28:23;;;;;;;25.70;19.02;;;;;;;-2.07;49.82;101256.75;10328342;28;20560;-61
2024/01/10 03:33:25;;;;;;;30.63;19.35;;;;;;;-2.12;50.08;101235.91;10329344;28;21042;-62
2024/01/10 03:38:27;;;;;;;28.73;19.00;;;;;;;-2.00;49.19;101253.19;10330068;28;20057;-62
2024/01/10 03:43:28;;;;;;;26.85;20.33;;;;;;;-2.04;49.63;101241.94;10331138;28;21036;-61
2024/01/10 03:48:30;;;;;;;26.30;19.50;;;;;;;-2.01;49.89;101247.09;10331570;28;20053;-63
2024/01/10 03:53:31;;;;;;;26.23;19.52;;;;;;;-2.01;49.50;101241.00;10325081;28;20535;-62
2024/01/10 03:58:33;;;;;;;31.30;19.08;;;;;;;-1.99;49.34;101241.88;10343241;28;20046;-62
2024/01/10 04:03:35;;;;;;;25.45;18.08;;;;;;;-2.03;49.40;101250.59;10345074;28;20657;-62
2024/01/10 04:08:44;;;;;;;29.67;19.90;;;;;;;-2.14;50.10;101238.56;10328799;28;20053;-61
2024/01/10 04:13:45;;;;;;;30.48;20.23;;;;;;;-2.13;50.00;101249.88;10329868;28;20046;-66
2024/01/10 04:18:47;;;;;;;30.10;20.58;;;;;;;-2.07;50.36;101251.53;10342915;28;20057;-62
2024/01/10 04:23:49;;;;;;;31.25;20.50;;;;;;;-2.01;50.26;101238.41;10322911;28;20546;-63
2024/01/10 04:28:50;;;;;;;26.85;19.67;;;;;;;-2.04;50.27;101244.53;10325621;28;20053;-63
2024/01/10 04:33:52;;;;;;;28.38;21.27;;;;;;;-2.39;50.39;101182.34;10327354;28;20045;-63
2024/01/10 04:38:53;;;;;;;29.23;20.98;;;;;;;-1.97;50.29;101243.59;10324216;28;20704;-63
2024/01/10 04:43:55;;;;;;;32.85;20.90;;;;;;;-2.07;50.38;101230.66;10329702;28;20064;-63
2024/01/10 04:48:56;;;;;;;26.52;19.27;;;;;;;-2.04;50.41;101244.53;10326228;28;20058;-61
2024/01/10 04:53:58;;;;;;;31.55;20.73;;;;;;;-2.02;50.34;101242.75;10338345;28;20072;-63
2024/01/10 04:58:59;;;;;;;27.15;20.10;;;;;;;-2.01;50.16;101246.22;10335716;28;20073;-60
2024/01/10 05:04:01;;;;;;;28.83;21.50;;;;;;;-2.05;50.13;101232.38;10323872;28;20049;-62
2024/01/10 05:09:04;;;;;;;29.30;19.58;;;;;;;-2.02;50.50;101254.97;10319038;28;20062;-61
2024/01/10 05:14:05;;;;;;;29.55;20.23;;;;;;;-2.06;49.87;101248.03;10326841;28;20066;-61
2024/01/10 05:19:07;;;;;;;27.92;19.48;;;;;;;-2.05;50.14;101247.16;10341549;28;20070;-62
2024/01/10 05:24:08;;;;;;;25.92;18.55;;;;;;;-2.09;50.00;101232.41;10349696;28;20463;-62
2024/01/10 05:29:10;;;;;;;28.23;20.00;;;;;;;-2.00;50.29;101240.13;10323482;28;20049;-62
2024/01/10 05:34:12;;;;;;;29.70;20.85;;;;;;;-2.19;49.83;101227.31;10335972;28;20056;-64
2024/01/10 05:39:15;;;;;;;27.77;19.88;;;;;;;-2.17;50.22;101224.69;10327504;28;20057;-65
2024/01/10 05:44:17;;;;;;;27.27;19.35;;;;;;;-2.04;51.11;101248.88;10329874;28;20200;-61
2024/01/10 05:49:19;;;;;;;30.17;20.67;;;;;;;-2.08;50.31;101239.38;10333323;28;20413;-62
2024/01/10 05:54:21;;;;;;;28.10;20.98;;;;;;;-2.17;50.00;101245.56;10333749;28;20056;-60
2024/01/10 05:59:23;;;;;;;32.92;20.33;;;;;;;-2.22;50.91;101235.19;10323806;28;20058;-60
2024/01/10 06:04:31;;;;;;;29.92;20.83;;;;;;;-2.14;50.47;101241.16;10355769;28;20046;-62
2024/01/10 06:09:32;;;;;;;32.45;20.65;;;;;;;-2.22;50.27;101223.88;10323690;28;20642;-65
2024/01/10 06:14:33;;;;;;;29.67;21.27;;;;;;;-2.04;50.45;101241.03;10333788;28;20069;-63
2024/01/10 06:19:35;;;;;;;30.25;20.90;;;;;;;-2.07;50.08;101231.53;10331295;28;20053;-63
2024/01/10 06:24:37;;;;;;;30.40;20.60;;;;;;;-2.13;49.61;101235.06;10345673;28;20058;-63
2024/01/10 06:29:40;;;;;;;31.38;22.63;;;;;;;-2.13;50.38;101227.25;10334153;28;20042;-61
2024/01/10 06:34:42;;;;;;;32.30;21.77;;;;;;;-2.06;50.63;101238.44;10355567;28;20115;-62
2024/01/10 06:39:45;;;;;;;30.05;20.83;;;;;;;-2.03;50.87;101240.16;10349690;28;20061;-62
2024/01/10 06:44:47;;;;;;;31.90;21.20;;;;;;;-2.05;50.10;101248.00;10327552;28;20081;-67
2024/01/10 06:49:49;;;;;;;32.55;21.63;;;;;;;-2.02;50.63;101244.53;10328502;28;20598;-63
2024/01/10 06:54:51;;;;;;;29.60;20.90;;;;;;;-2.05;50.92;101245.41;10332092;28;20646;-62
2024/01/10 06:59:53;;;;;;;32.00;20.98;;;;;;;-2.02;50.12;101249.72;10357301;28;20140;-63
2024/01/10 07:04:54;;;;;;;30.55;19.67;;;;;;;-2.13;50.71;101242.91;10334541;28;20068;-62
2024/01/10 07:09:55;;;;;;;26.83;19.50;;;;;;;-2.02;51.11;101255.81;10341916;28;20117;-61
2024/01/10 07:14:58;;;;;;;28.10;20.65;;;;;;;-1.99;49.79;101260.13;10368769;28;20061;-62
2024/01/10 07:19:59;;;;;;;26.05;19.42;;;;;;;-1.91;50.44;101263.50;10342291;28;20279;-62
2024/01/10 07:25:01;;;;;;;29.40;19.90;;;;;;;-1.97;50.25;101259.25;10327694;28;20514;-62
2024/01/10 07:30:13;;;;;;;28.40;19.00;;;;;;;-1.87;50.25;101264.34;10349286;28;20056;-69
2024/01/10 07:35:14;;;;;;;28.80;20.00;;;;;;;-1.89;49.74;101259.13;10330734;28;20049;-62
2024/01/10 07:40:16;;;;;;;31.52;19.88;;;;;;;-1.88;50.94;101273.03;10332017;28;20056;-62
2024/01/10 07:45:18;;;;;;;27.58;19.98;;;;;;;-1.86;50.08;101279.97;10331490;28;20054;-62
2024/01/10 07:50:26;;;;;;;27.38;19.30;;;;;;;-1.85;49.51;101280.84;10324471;28;20041;-60
2024/01/10 07:55:29;;;;;;;27.15;21.10;;;;;;;-1.80;50.12;101289.47;10325746;28;20056;-63
2024/01/10 08:00:32;;;;;;;30.35;20.52;;;;;;;-1.78;49.99;101301.63;10360832;28;20432;-62
2024/01/10 08:05:33;;;;;;;26.33;20.00;;;;;;;-1.68;50.92;101317.16;10345739;28;20863;-65
2024/01/10 08:10:38;;;;;;;28.83;21.77;;;;;;;-1.72;50.02;101303.28;10324595;28;20050;-63
2024/01/10 08:15:41;;;;;;;30.17;21.70;;;;;;;-1.62;50.04;101322.31;10345087;28;20050;-61
2024/01/10 08:20:43;;;;;;;31.60;19.70;;;;;;;-1.56;50.29;101316.13;10311238;28;20085;-69
2024/01/10 08:25:44;;;;;;;26.33;20.77;;;;;;;-1.49;49.81;101317.78;10346093;28;20070;-63
2024/01/10 08:30:46;;;;;;;31.20;20.88;;;;;;;-1.48;49.78;101304.72;10321681;28;20547;-63
2024/01/10 08:35:47;;;;;;;27.75;20.08;;;;;;;-1.38;49.77;101309.81;10329927;28;20047;-62
2024/01/10 08:40:49;;;;;;;27.92;21.95;;;;;;;-1.29;50.31;101322.72;10337179;28;20165;-64
2024/01/10 08:45:54;;;;;;;32.65;21.63;;;;;;;-1.13;49.56;101324.22;10323902;28;20058;-62
2024/01/10 08:50:56;;;;;;;31.63;21.67;;;;;;;-1.10;49.15;101326.78;10327558;28;20050;-63
2024/01/10 08:55:58;;;;;;;29.25;20.27;;;;;;;-1.04;49.05;101320.63;10332879;28;20425;-63
2024/01/10 09:00:59;;;;;;;31.55;19.25;;;;;;;-0.98;49.29;101320.53;10339621;28;20065;-62
2024/01/10 09:06:01;;;;;;;29.60;21.52;;;;;;;-0.91;49.14;101335.22;10323214;28;20394;-63
2024/01/10 09:11:12;;;;;;;27.63;20.15;;;;;;;-0.90;49.07;101336.13;10322181;28;20941;-63
2024/01/10 09:16:18;;;;;;;29.92;20.35;;;;;;;-0.88;48.10;101342.16;10321314;28;20054;-65
2024/01/10 09:21:20;;;;;;;32.42;20.77;;;;;;;-0.74;49.23;101336.72;10335934;28;20054;-64
2024/01/10 09:26:23;;;;;;;27.85;21.25;;;;;;;-0.68;49.12;101348.84;10323082;28;20061;-65
2024/01/10 09:31:24;;;;;;;29.42;20.65;;;;;;;-0.63;49.29;101353.09;10327545;28;20065;-66
2024/01/10 09:36:28;;;;;;;29.55;20.75;;;;;;;-0.58;48.48;101353.88;10342514;28;20062;-62
2024/01/10 09:41:36;;;;;;;29.65;21.67;;;;;;;-0.52;48.34;101355.53;10348916;28;20763;-62
2024/01/10 09:46:40;;;;;;;32.83;22.05;;;;;;;-0.53;48.38;101359.03;10336961;28;20628;-62
2024/01/10 09:51:42;;;;;;;30.15;22.83;;;;;;;-0.61;48.60;101353.94;10327580;28;20064;-62
2024/01/10 09:56:47;;;;;;;31.90;22.33;;;;;;;-0.48;49.52;101359.84;10325676;28;20077;-68
2024/01/10 10:01:51;;;;;;;31.10;23.20;;;;;;;-0.43;49.10;101360.59;10323923;28;20367;-62
2024/01/10 10:07:03;;;;;;;30.33;21.77;;;;;;;-0.42;48.64;101351.00;10332585;28;20113;-63
2024/01/10 10:12:06;;;;;;;29.20;21.52;;;;;;;-0.41;48.93;101344.88;10316667;28;20119;-64
2024/01/10 10:17:15;;;;;;;33.30;24.52;;;;;;;-0.39;49.34;101351.81;10322133;28;20065;-63
2024/01/10 10:22:18;;;;;;;31.85;22.10;;;;;;;-0.38;49.42;101348.28;10320542;28;20050;-62
2024/01/10 10:27:20;;;;;;;28.30;20.48;;;;;;;-0.46;48.69;101324.03;10324423;28;20050;-63
2024/01/10 10:32:21;;;;;;;32.55;22.30;;;;;;;-0.31;49.44;101337.75;10352574;28;20927;-60
2024/01/10 10:37:23;;;;;;;29.63;21.75;;;;;;;-0.19;49.16;101338.38;10326379;28;20049;-63
2024/01/10 10:42:28;;;;;;;31.58;21.40;;;;;;;-0.22;49.13;101327.09;10327552;28;20184;-63
2024/01/10 10:47:36;;;;;;;29.23;22.35;;;;;;;-0.13;49.18;101332.16;10360282;28;20065;-63
2024/01/10 10:52:39;;;;;;;31.60;22.95;;;;;;;-0.09;48.56;101323.38;10329791;28;20108;-62
2024/01/10 10:57:43;;;;;;;30.67;22.00;;;;;;;-0.03;48.99;101317.13;10330434;28;20595;-63
2024/01/10 11:02:55;;;;;;;32.05;23.10;;;;;;;0.04;49.25;101316.13;10331794;28;20690;-65
2024/01/10 11:07:57;;;;;;;33.00;22.58;;;;;;;0.09;49.86;101318.66;10346570;28;20049;-63
2024/01/10 11:13:26;;;;;;;31.85;22.60;;;;;;;0.07;48.35;101315.22;10340757;28;20131;-61
2024/01/10 11:18:52;;;;;;;32.17;22.08;;;;;;;0.06;49.15;101327.44;10332078;28;20499;-61
2024/01/10 11:23:58;;;;;;;30.35;21.92;;;;;;;0.18;50.02;101305.38;10330796;28;20073;-62
2024/01/10 11:29:00;;;;;;;33.30;22.77;;;;;;;0.28;49.64;101296.44;10319363;28;20297;-61
2024/01/10 11:34:03;;;;;;;31.98;22.17;;;;;;;0.48;48.32;101295.13;10313109;28;20106;-63
2024/01/10 11:39:06;;;;;;;32.60;22.45;;;;;;;0.96;48.13;101287.06;10339636;28;20192;-63
2024/01/10 11:44:11;;;;;;;36.22;25.92;;;;;;;1.41;46.79;101288.56;10324255;28;20078;-61
2024/01/10 11:49:16;;;;;;;30.13;21.42;;;;;;;1.31;46.98;101276.59;10356693;28;20100;-62
2024/01/10 11:54:43;;;;;;;27.25;21.88;;;;;;;1.29;47.05;101297.63;10345091;28;20049;-62
2024/01/10 11:59:49;;;;;;;34.50;23.55;;;;;;;1.19;46.84;101290.88;10329542;28;20046;-64
2024/01/10 12:04:51;;;;;;;30.23;20.35;;;;;;;1.25;47.25;101282.88;10325290;28;20515;-64
2024/01/10 12:09:54;;;;;;;29.63;22.38;;;;;;;1.28;46.63;101268.81;10325868;28;20061;-63
2024/01/10 12:14:56;;;;;;;30.52;21.30;;;;;;;1.34;47.14;101273.91;10321573;28;20100;-62
2024/01/10 12:19:57;;;;;;;31.08;21.40;;;;;;;1.50;46.90;101269.09;10326278;28;20607;-63
2024/01/10 12:25:05;;;;;;;31.05;21.92;;;;;;;1.62;46.25;101267.91;10322558;28;20051;-62
2024/01/10 12:30:07;;;;;;;30.67;21.65;;;;;;;1.87;45.73;101275.97;10325585;28;20055;-63
2024/01/10 12:35:09;;;;;;;29.13;21.35;;;;;;;1.98;45.14;101254.66;10329421;28;20575;-62
2024/01/10 12:40:10;;;;;;;30.13;20.85;;;;;;;3.74;42.98;101268.31;10348917;28;20061;-62
2024/01/10 12:45:23;;;;;;;28.77;20.60;;;;;;;5.30;39.98;101263.13;10351322;28;20049;-64
2024/01/10 12:50:25;;;;;;;27.83;21.20;;;;;;;6.27;36.97;101257.16;10332443;28;20045;-65
2024/01/10 12:55:27;;;;;;;29.13;21.38;;;;;;;6.23;36.68;101264.38;10327829;28;20073;-64
2024/01/10 13:00:29;;;;;;;27.10;18.85;;;;;;;7.59;34.29;101258.59;10315216;28;20559;-65
2024/01/10 13:05:31;;;;;;;26.17;19.45;;;;;;;8.54;32.26;101253.56;10314999;28;20612;-66
2024/01/10 13:10:33;;;;;;;25.08;20.02;;;;;;;9.09;32.41;101253.06;10309578;28;20119;-64
2024/01/10 13:15:35;;;;;;;27.95;20.55;;;;;;;9.53;31.19;101246.06;10319530;28;20671;-66
2024/01/10 13:20:37;;;;;;;25.95;20.25;;;;;;;10.24;30.21;101237.25;10341632;28;20047;-65
2024/01/10 13:25:39;;;;;;;25.45;20.55;;;;;;;10.43;29.49;101238.75;10314085;28;20149;-67
2024/01/10 13:30:42;;;;;;;25.98;19.30;;;;;;;10.52;29.69;101250.63;10319625;28;20081;-65
2024/01/10 13:35:44;;;;;;;25.13;19.33;;;;;;;10.83;29.56;101240.66;10320457;28;20099;-65
2024/01/10 13:40:46;;;;;;;23.15;19.42;;;;;;;11.17;28.05;101241.94;10352843;28;20164;-66
2024/01/10 13:45:47;;;;;;;22.65;19.08;;;;;;;11.53;27.40;101242.16;10328563;28;20210;-66
2024/01/10 13:50:49;;;;;;;25.40;19.30;;;;;;;11.61;27.13;101242.50;10322978;28;20160;-66
2024/01/10 13:55:50;;;;;;;22.77;18.65;;;;;;;9.13;30.56;101240.50;10330162;28;20060;-66
2024/01/10 14:00:52;;;;;;;24.17;18.98;;;;;;;6.84;33.73;101239.41;10317285;28;20053;-65
2024/01/10 14:05:56;;;;;;;24.07;19.03;;;;;;;5.81;35.92;101239.78;10350389;28;20053;-67
2024/01/10 14:10:58;;;;;;;25.02;18.98;;;;;;;5.29;37.39;101244.69;10327744;28;20460;-65
2024/01/10 14:16:01;;;;;;;23.15;18.25;;;;;;;4.67;37.81;101214.72;10325618;28;20155;-65
2024/01/10 14:21:02;;;;;;;26.35;19.77;;;;;;;4.62;39.04;101256.25;10329716;28;20061;-64
2024/01/10 14:26:05;;;;;;;27.67;20.80;;;;;;;4.41;39.31;101261.44;10330083;28;20048;-64
2024/01/10 14:31:07;;;;;;;27.88;20.00;;;;;;;4.13;40.04;101236.16;10335085;28;20128;-66
2024/01/10 14:36:23;;;;;;;25.15;19.73;;;;;;;4.14;40.24;101251.03;10329604;28;20058;-65
2024/01/10 14:41:24;;;;;;;28.63;21.33;;;;;;;3.84;40.55;101251.28;10342620;28;20050;-65
2024/01/10 14:46:28;;;;;;;28.08;19.48;;;;;;;3.77;41.07;101256.78;10349082;28;20057;-66
2024/01/10 14:51:29;;;;;;;27.27;20.73;;;;;;;3.58;41.65;101249.56;10345462;28;20050;-64
2024/01/10 14:56:31;;;;;;;28.85;21.15;;;;;;;3.50;41.50;101263.00;10329301;28;20075;-64
2024/01/10 15:01:32;;;;;;;26.30;19.80;;;;;;;3.39;41.96;101278.28;10329755;28;20061;-63
2024/01/10 15:06:34;;;;;;;25.55;21.08;;;;;;;3.22;42.27;101284.13;10328915;28;20665;-63
2024/01/10 15:11:35;;;;;;;28.08;19.45;;;;;;;3.20;42.77;101280.69;10325416;28;20093;-63
2024/01/10 15:16:39;;;;;;;26.63;21.10;;;;;;;3.07;43.18;101280.22;10329210;28;20043;-63
2024/01/10 15:21:43;;;;;;;26.73;19.98;;;;;;;2.92;43.52;101286.00;10326411;28;20054;-62
2024/01/10 15:26:45;;;;;;;26.50;21.92;;;;;;;2.78;43.71;101274.16;10328756;28;20684;-63
2024/01/10 15:31:50;;;;;;;;;;;;;;;2.70;43.54;101291.06;10327006;28;20052;-63
2024/01/10 15:36:52;;;;;;;29.60;21.35;;;;;;;2.47;43.70;101284.75;10324052;28;20385;-63
2024/01/10 15:41:54;;;;;;;29.48;20.38;;;;;;;2.41;44.30;101298.06;10324469;28;20053;-63
2024/01/10 15:46:57;;;;;;;27.85;20.58;;;;;;;2.27;44.66;101293.22;10327122;28;20496;-64
2024/01/10 15:51:59;;;;;;;28.73;20.15;;;;;;;2.25;44.73;101301.16;10325710;28;20054;-64
2024/01/10 15:57:00;;;;;;;29.85;23.05;;;;;;;2.20;44.52;101307.44;10330575;28;20060;-64
2024/01/10 16:02:05;;;;;;;29.15;21.45;;;;;;;2.09;45.15;101316.50;10329277;28;21006;-63
2024/01/10 16:07:06;;;;;;;30.70;22.27;;;;;;;2.00;45.27;101321.13;10331562;28;20124;-65
2024/01/10 16:12:08;;;;;;;28.65;22.05;;;;;;;1.91;45.48;101325.75;10334866;28;20049;-65
2024/01/10 16:17:09;;;;;;;29.20;22.08;;;;;;;1.72;45.87;101287.75;10328142;28;20139;-64
2024/01/10 16:22:11;;;;;;;30.13;22.35;;;;;;;1.89;46.43;101329.31;10325739;28;20076;-65
2024/01/10 16:27:13;;;;;;;32.20;22.60;;;;;;;1.62;46.74;101305.50;10325619;28;20050;-65
2024/01/10 16:32:14;;;;;;;30.48;22.60;;;;;;;1.66;46.54;101328.16;10324636;28;20141;-66
2024/01/10 16:37:15;;;;;;;29.23;22.05;;;;;;;1.65;46.71;101320.31;10327186;28;20121;-65
2024/01/10 16:42:17;;;;;;;30.58;22.70;;;;;;;1.68;46.86;101321.13;10343149;28;20050;-67
2024/01/10 16:47:18;;;;;;;30.10;22.90;;;;;;;1.56;47.21;101322.31;10346597;28;20136;-65
2024/01/10 16:52:21;;;;;;;29.08;22.50;;;;;;;1.50;47.29;101324.19;10336351;28;20085;-64
2024/01/10 16:57:25;;;;;;;32.40;23.58;;;;;;;1.48;47.51;101326.88;10340266;28;20595;-63
2024/01/10 17:02:27;;;;;;;31.40;21.83;;;;;;;1.46;47.66;101325.22;10322344;28;20732;-63
2024/01/10 17:07:29;;;;;;;29.67;22.13;;;;;;;1.32;47.64;101329.03;10332796;28;20128;-62
2024/01/10 17:12:31;;;;;;;30.95;22.75;;;;;;;1.23;48.26;101329.22;10326043;28;20137;-64
2024/01/10 17:17:33;;;;;;;31.55;23.48;;;;;;;1.34;48.44;101349.97;10326941;28;20045;-63
2024/01/10 17:22:35;;;;;;;30.48;21.85;;;;;;;1.28;48.72;101348.38;10325004;28;20053;-63
2024/01/10 17:27:40;;;;;;;32.97;22.92;;;;;;;1.29;49.13;101350.09;10322629;28;20686;-62
2024/01/10 17:32:47;;;;;;;;;;;;;;;1.27;48.43;101351.88;10346656;28;20073;-63
2024/01/10 17:37:48;;;;;;;33.55;22.73;;;;;;;1.21;49.04;101341.53;10328534;28;20387;-64
2024/01/10 17:42:51;;;;;;;31.33;23.45;;;;;;;1.15;48.96;101347.78;10335371;28;20053;-64
2024/01/10 17:47:52;;;;;;;30.63;22.42;;;;;;;1.22;49.37;101353.75;10336217;28;20188;-62
2024/01/10 17:52:55;;;;;;;33.80;23.40;;;;;;;1.12;49.45;101344.38;10333501;28;20509;-63
2024/01/10 17:57:57;;;;;;;28.70;22.27;;;;;;;1.04;49.36;101355.91;10353561;28;20148;-64
2024/01/10 18:02:59;;;;;;;30.05;22.83;;;;;;;1.16;49.70;101359.16;10334300;28;20669;-64
2024/01/10 18:08:00;;;;;;;31.52;22.30;;;;;;;0.85;49.77;101317.91;10336849;28;20821;-64
2024/01/10 18:13:02;;;;;;;34.50;24.15;;;;;;;1.05;49.63;101351.53;10337637;28;20050;-63
2024/01/10 18:18:06;;;;;;;32.72;22.98;;;;;;;0.91;49.98;101341.34;10362317;28;20069;-64
2024/01/10 18:23:12;;;;;;;35.00;24.92;;;;;;;0.91;50.08;101343.97;10337878;28;20057;-63
2024/01/10 18:28:13;;;;;;;32.90;24.05;;;;;;;0.93;50.03;101357.94;10336920;28;20086;-64
2024/01/10 18:33:16;;;;;;;32.92;23.52;;;;;;;0.90;50.46;101355.34;10334666;28;20058;-64
2024/01/10 18:38:18;;;;;;;34.67;24.00;;;;;;;0.81;50.28;101338.09;10322959;28;20077;-63
2024/01/10 18:43:20;;;;;;;33.45;24.75;;;;;;;0.84;50.22;101355.50;10336533;28;20050;-63
2024/01/10 18:48:23;;;;;;;32.33;24.08;;;;;;;0.76;50.46;101334.69;10331106;28;20050;-65
2024/01/10 18:53:25;;;;;;;32.35;24.05;;;;;;;0.84;50.76;101358.13;10337927;28;20540;-64
2024/01/10 18:58:28;;;;;;;31.10;24.00;;;;;;;0.71;50.56;101331.34;10326380;28;20063;-63
2024/01/10 19:03:30;;;;;;;33.00;25.35;;;;;;;0.80;50.62;101352.09;10350920;28;20067;-63
2024/01/10 19:08:31;;;;;;;33.55;24.83;;;;;;;0.78;51.24;101363.50;10338061;28;20479;-63
2024/01/10 19:13:38;;;;;;;33.03;24.73;;;;;;;0.75;51.05;101353.09;10364887;28;20053;-62
2024/01/10 19:18:40;;;;;;;34.70;24.83;;;;;;;0.79;50.99;101365.22;10353424;28;20611;-65
2024/01/10 19:23:45;;;;;;;35.05;25.77;;;;;;;0.73;51.45;101365.38;10337931;28;20066;-64
2024/01/10 19:28:47;;;;;;;36.63;24.80;;;;;;;0.67;51.71;101364.59;10328446;28;20057;-66
2024/01/10 19:33:51;;;;;;;31.92;24.65;;;;;;;0.77;51.86;101374.91;10359908;28;20222;-66
2024/01/10 19:38:53;;;;;;;34.83;24.40;;;;;;;0.78;51.71;101373.97;10345060;28;20055;-64
2024/01/10 19:43:54;;;;;;;34.40;25.35;;;;;;;0.62;51.62;101353.34;10370134;28;20065;-64
2024/01/10 19:48:56;;;;;;;40.10;25.35;;;;;;;0.64;51.71;101377.75;10321867;28;20443;-70
2024/01/10 19:53:57;;;;;;;35.08;25.13;;;;;;;0.59;52.11;101390.13;10350718;28;20544;-65
2024/01/10 19:58:59;;;;;;;35.10;25.77;;;;;;;0.59;51.87;101389.25;10334786;28;20116;-64
2024/01/10 20:04:01;;;;;;;35.17;25.13;;;;;;;0.64;52.15;101387.38;10337437;28;20668;-64
2024/01/10 20:09:03;;;;;;;34.72;24.48;;;;;;;0.47;52.02;101385.97;10343749;28;20041;-65
2024/01/10 20:14:04;;;;;;;32.70;24.30;;;;;;;0.59;52.36;101395.34;10339995;28;20076;-63
2024/01/10 20:19:06;;;;;;;32.75;24.65;;;;;;;0.52;52.35;101396.38;10341710;28;20069;-62
2024/01/10 20:24:08;;;;;;;32.65;24.38;;;;;;;0.41;52.36;101387.88;10337963;28;20062;-64
2024/01/10 20:29:09;;;;;;;32.75;23.08;;;;;;;0.42;52.32;101392.19;10339839;28;20073;-65
2024/01/10 20:34:11;;;;;;;36.30;26.27;;;;;;;0.39;52.62;101397.50;10361616;28;20480;-66
2024/01/10 20:39:13;;;;;;;33.17;25.02;;;;;;;0.39;52.99;101402.75;10331123;28;20108;-66
2024/01/10 20:44:14;;;;;;;32.25;23.58;;;;;;;0.40;52.71;101402.72;10349552;28;20050;-65
2024/01/10 20:49:16;;;;;;;38.28;26.55;;;;;;;0.35;52.57;101392.31;10348639;28;20045;-63
2024/01/10 20:54:18;;;;;;;35.35;24.98;;;;;;;0.35;52.70;101396.72;10336700;28;20851;-64
2024/01/10 20:59:21;;;;;;;33.08;25.88;;;;;;;0.34;52.36;101406.31;10338608;28;20057;-63
2024/01/10 21:04:26;;;;;;;33.42;25.60;;;;;;;0.33;52.62;101394.13;10339224;28;20059;-63
2024/01/10 21:09:30;;;;;;;34.07;24.60;;;;;;;0.37;52.95;101388.81;10345342;28;20065;-66
2024/01/10 21:14:32;;;;;;;35.38;25.35;;;;;;;0.42;52.21;101400.06;10352761;28;20423;-63
2024/01/10 21:19:34;;;;;;;31.65;23.48;;;;;;;0.36;52.55;101398.41;10340454;28;20135;-66
2024/01/10 21:24:36;;;;;;;35.40;25.60;;;;;;;0.27;52.18;101394.25;10330657;28;20065;-65
2024/01/10 21:29:38;;;;;;;35.33;25.80;;;;;;;0.26;52.86;101382.03;10340654;28;20196;-65
2024/01/10 21:34:40;;;;;;;34.72;24.75;;;;;;;0.20;52.99;101379.53;10322560;28;20053;-65
2024/01/10 21:39:41;;;;;;;33.65;25.35;;;;;;;0.19;52.85;101388.28;10321640;28;20143;-67
2024/01/10 21:44:43;;;;;;;32.60;23.80;;;;;;;0.14;52.97;101382.28;10324223;28;20705;-66
2024/01/10 21:49:45;;;;;;;34.95;25.35;;;;;;;0.11;53.49;101385.81;10318405;28;20053;-65
2024/01/10 21:54:47;;;;;;;33.90;24.73;;;;;;;0.13;53.66;101396.25;10372742;28;20459;-64
2024/01/10 21:59:49;;;;;;;33.22;24.13;;;;;;;0.15;53.04;101391.84;10338479;28;20081;-65
2024/01/10 22:04:50;;;;;;;35.15;25.00;;;;;;;0.16;53.39;101396.19;10335288;28;20508;-64
2024/01/10 22:09:52;;;;;;;31.90;23.42;;;;;;;0.14;52.93;101405.84;10322761;28;20054;-64
2024/01/10 22:14:54;;;;;;;31.20;24.33;;;;;;;0.10;52.98;101397.16;10343949;28;20057;-62
2024/01/10 22:19:56;;;;;;;35.70;24.30;;;;;;;0.13;53.50;101396.25;10322835;28;20052;-66
2024/01/10 22:24:57;;;;;;;30.15;22.85;;;;;;;0.07;53.31;101391.13;10342352;28;20525;-63
2024/01/10 22:30:00;;;;;;;35.20;24.17;;;;;;;0.08;53.15;101404.19;10350485;28;20061;-65
2024/01/10 22:35:08;;;;;;;30.85;22.73;;;;;;;0.18;53.62;101407.50;10330620;28;20046;-65
2024/01/10 22:40:10;;;;;;;31.60;23.45;;;;;;;0.16;53.12;101402.28;10331864;28;20417;-64
2024/01/10 22:45:13;;;;;;;31.25;23.55;;;;;;;0.21;53.12;101404.84;10326206;28;20086;-63
2024/01/10 22:50:16;;;;;;;32.45;23.70;;;;;;;0.16;52.79;101401.44;10324198;28;20046;-65